Time;durP1;ratioP1;P1;durP2;ratioP2;P2;SDS_P1;SDS_P2;PMS_P1;PMS_P2;Temp;Humidity;BMP_temperature;BMP_pressure;BME280_temperature;BME280_humidity;BME280_pressure;Samples;Min_cycle;Max_cycle;Signal;HPM_P1;HPM_P2
2023/07/27 00:01:36;;;;;;;;;;;;;;;16.06;37.68;100328.47;4902703;28;98197;-74
2023/07/27 00:04:04;;;;;;;;;;;;;;;16.06;37.68;100322.22;4902666;28;97839;-74
2023/07/27 00:06:31;;;;;;;;;;;;;;;16.05;37.35;100324.16;4917763;28;97928;-74
2023/07/27 00:08:58;;;;;;;;;;;;;;;16.03;37.57;100331.00;4887305;28;98129;-74
2023/07/27 00:11:26;;;;;;;;;;;;;;;16.03;37.72;100310.03;4890941;28;98080;-74
2023/07/27 00:13:53;;;;;;;;;;;;;;;16.05;37.58;100318.72;4923769;28;98076;-74
2023/07/27 00:16:20;;;;;;;;;;;;;;;16.06;37.68;100319.50;4918557;28;98939;-74
2023/07/27 00:18:47;;;;;;;;;;;;;;;16.06;37.62;100317.59;4898906;28;101754;-74
2023/07/27 00:21:13;;;;;;;;;;;;;;;16.08;37.75;100309.16;4905396;28;99712;-74
2023/07/27 00:23:40;;;;;;;;;;;;;;;16.08;37.61;100309.16;4897013;28;98534;-74
2023/07/27 00:26:08;;;;;;;;;;;;;;;16.10;37.66;100317.78;4881079;28;101421;-73
2023/07/27 00:28:34;;;;;;;;;;;;;;;16.11;37.54;100316.66;4908944;28;98866;-74
2023/07/27 00:31:03;;;;;;;;;;;;;;;16.12;37.60;100310.13;4887007;28;98157;-74
2023/07/27 00:33:30;;;;;;;;;;;;;;;16.12;38.00;100321.00;4920856;28;98175;-74
2023/07/27 00:35:58;;;;;;;;;;;;;;;16.13;37.73;100317.97;4901083;28;98502;-74
2023/07/27 00:38:28;;;;;;;;;;;;;;;16.14;37.65;100322.28;4935644;28;101083;-74
2023/07/27 00:40:56;;;;;;;;;;;;;;;16.15;37.80;100328.53;4904132;28;98183;-73
2023/07/27 00:43:25;;;;;;;;;;;;;;;16.15;37.86;100323.09;4906907;28;98122;-74
2023/07/27 00:45:53;;;;;;;;;;;;;;;16.15;37.80;100320.38;4891339;28;101030;-74
2023/07/27 00:48:22;;;;;;;;;;;;;;;16.15;37.59;100339.41;4892294;28;98546;-73
2023/07/27 00:50:50;;;;;;;;;;;;;;;16.14;37.52;100335.09;4906108;28;98281;-73
2023/07/27 00:53:17;;;;;;;;;;;;;;;16.14;37.71;100332.38;4899723;28;98156;-74
2023/07/27 00:55:45;;;;;;;;;;;;;;;16.12;37.66;100329.16;4921251;28;98158;-74
2023/07/27 00:58:13;;;;;;;;;;;;;;;16.09;37.67;100327.84;4890519;28;98161;-74
2023/07/27 01:00:44;;;;;;;;;;;;;;;16.09;37.79;100338.72;4903694;28;98030;-74
2023/07/27 01:03:10;;;;;;;;;;;;;;;16.07;37.80;100334.69;4918301;28;99285;-74
2023/07/27 01:05:37;;;;;;;;;;;;;;;16.04;37.85;100332.63;4913156;28;99754;-74
2023/07/27 01:08:05;;;;;;;;;;;;;;;16.00;37.91;100326.97;4906055;28;99478;-74
2023/07/27 01:10:45;;;;;;;;;;;;;;;15.99;37.92;100330.78;4915075;28;98065;-74
2023/07/27 01:13:28;;;;;;;;;;;;;;;15.95;37.68;100333.34;4908320;28;98133;-74
2023/07/27 01:16:08;;;;;;;;;;;;;;;15.92;37.84;100328.53;4905564;28;99829;-73
2023/07/27 01:18:54;;;;;;;;;;;;;;;15.89;37.79;100323.69;4920877;28;98022;-74
2023/07/27 01:21:30;;;;;;;;;;;;;;;15.86;37.74;100327.00;4902031;28;98543;-73
2023/07/27 01:24:25;;;;;;;;;;;;;;;15.84;37.71;100323.00;4906204;28;98582;-74
2023/07/27 01:27:10;;;;;;;;;;;;;;;15.81;38.08;100320.91;4901279;28;99468;-74
2023/07/27 01:29:55;;;;;;;;;;;;;;;15.79;37.88;100317.66;4932824;28;98148;-73
2023/07/27 01:32:23;;;;;;;;;;;;;;;15.77;38.00;100319.91;4917531;28;98131;-73
2023/07/27 01:34:51;;;;;;;;;;;;;;;15.74;38.13;100317.78;4911683;28;98160;-74
2023/07/27 01:37:20;;;;;;;;;;;;;;;15.70;37.95;100317.59;4882298;28;98324;-74
2023/07/27 01:39:48;;;;;;;;;;;;;;;15.68;37.79;100314.38;4921151;28;98744;-73
2023/07/27 01:42:15;;;;;;;;;;;;;;;15.66;37.87;100313.88;4919115;28;98190;-73
2023/07/27 01:44:44;;;;;;;;;;;;;;;15.65;37.90;100315.00;4904864;28;98345;-73
2023/07/27 01:47:11;;;;;;;;;;;;;;;15.64;37.83;100321.47;4918205;28;98403;-73
2023/07/27 01:49:39;;;;;;;;;;;;;;;15.63;38.12;100319.88;4919884;28;98464;-73
2023/07/27 01:52:08;;;;;;;;;;;;;;;15.61;38.06;100316.69;4901026;28;98230;-73
2023/07/27 01:54:37;;;;;;;;;;;;;;;15.59;37.89;100324.31;4903795;28;98161;-73
2023/07/27 01:57:04;;;;;;;;;;;;;;;15.53;37.82;100311.97;4921095;28;98207;-73
2023/07/27 01:59:30;;;;;;;;;;;;;;;15.47;38.05;100312.03;4903456;28;99468;-73
2023/07/27 02:01:56;;;;;;;;;;;;;;;15.41;38.31;100321.41;4898642;28;98254;-73
2023/07/27 02:04:23;;;;;;;;;;;;;;;15.40;38.05;100321.72;4917071;28;99953;-73
2023/07/27 02:06:54;;;;;;;;;;;;;;;15.38;38.04;100326.66;4909959;28;98186;-74
2023/07/27 02:09:21;;;;;;;;;;;;;;;15.37;38.25;100325.06;4928122;28;99400;-75
2023/07/27 02:11:51;;;;;;;;;;;;;;;15.35;37.92;100328.06;4904492;28;102836;-74
2023/07/27 02:14:51;;;;;;;;;;;;;;;15.32;37.96;100327.84;4888694;28;98190;-74
2023/07/27 02:17:26;;;;;;;;;;;;;;;15.29;38.34;100329.28;4920267;28;97930;-74
2023/07/27 02:19:56;;;;;;;;;;;;;;;15.29;38.01;100328.44;4909004;28;98782;-75
2023/07/27 02:22:25;;;;;;;;;;;;;;;15.29;38.00;100325.72;4920480;28;98051;-74
2023/07/27 02:24:52;;;;;;;;;;;;;;;15.27;38.20;100322.53;4906783;28;99417;-74
2023/07/27 02:27:20;;;;;;;;;;;;;;;15.26;38.03;100326.34;4907972;28;98276;-74
2023/07/27 02:29:48;;;;;;;;;;;;;;;15.22;37.98;100321.53;4909832;28;97985;-73
2023/07/27 02:32:15;;;;;;;;;;;;;;;15.19;38.06;100324.03;4906335;28;98167;-74
2023/07/27 02:34:44;;;;;;;;;;;;;;;15.14;38.25;100324.94;4901378;28;99191;-74
2023/07/27 02:37:12;;;;;;;;;;;;;;;15.12;38.25;100318.19;4905800;28;97856;-74
2023/07/27 02:39:39;;;;;;;;;;;;;;;15.11;38.29;100313.88;4889195;28;98502;-74
2023/07/27 02:42:06;;;;;;;;;;;;;;;15.09;38.12;100321.50;4905163;28;99222;-73
2023/07/27 02:44:33;;;;;;;;;;;;;;;15.06;38.12;100322.94;4925544;28;99735;-73
2023/07/27 02:47:02;;;;;;;;;;;;;;;15.05;38.43;100323.22;4908139;28;98362;-75
2023/07/27 02:49:29;;;;;;;;;;;;;;;15.03;38.25;100326.25;4920283;28;98457;-74
2023/07/27 02:51:56;;;;;;;;;;;;;;;15.01;38.17;100322.19;4904903;28;100825;-74
2023/07/27 02:54:24;;;;;;;;;;;;;;;14.97;38.19;100317.41;4899865;28;99631;-73
2023/07/27 02:56:51;;;;;;;;;;;;;;;14.94;38.15;100325.31;4906885;28;99418;-73
2023/07/27 02:59:17;;;;;;;;;;;;;;;14.91;38.31;100317.78;4907810;28;98252;-74
2023/07/27 03:01:44;;;;;;;;;;;;;;;14.88;38.39;100327.31;4892738;28;100448;-73
2023/07/27 03:04:11;;;;;;;;;;;;;;;14.83;38.17;100322.00;4905338;28;98360;-74
2023/07/27 03:06:40;;;;;;;;;;;;;;;14.79;38.44;100323.69;4919186;28;100179;-73
2023/07/27 03:09:07;;;;;;;;;;;;;;;14.77;38.47;100325.88;4903620;28;99573;-73
2023/07/27 03:11:34;;;;;;;;;;;;;;;14.75;38.08;100338.97;4922048;28;98151;-74
2023/07/27 03:14:01;;;;;;;;;;;;;;;14.70;38.30;100334.44;4908044;28;98082;-73
2023/07/27 03:16:28;;;;;;;;;;;;;;;14.66;38.58;100332.63;4891551;28;98171;-74
2023/07/27 03:18:55;;;;;;;;;;;;;;;14.65;38.16;100330.97;4927291;28;99709;-74
2023/07/27 03:21:23;;;;;;;;;;;;;;;14.63;38.55;100333.19;4907169;28;98487;-73
2023/07/27 03:23:51;;;;;;;;;;;;;;;14.61;38.55;100327.25;4922130;28;98137;-74
2023/07/27 03:26:21;;;;;;;;;;;;;;;14.58;38.28;100334.09;4922222;28;99072;-73
2023/07/27 03:28:50;;;;;;;;;;;;;;;14.56;38.53;100332.78;4885043;28;100933;-74
2023/07/27 03:31:21;;;;;;;;;;;;;;;14.53;38.44;100333.34;4921134;28;100329;-74
2023/07/27 03:33:51;;;;;;;;;;;;;;;14.48;38.34;100331.50;4906839;28;98485;-74
2023/07/27 03:36:20;;;;;;;;;;;;;;;14.44;38.56;100328.59;4907042;28;98661;-73
2023/07/27 03:38:49;;;;;;;;;;;;;;;14.41;38.78;100326.47;4910365;28;98552;-75
2023/07/27 03:41:16;;;;;;;;;;;;;;;14.39;38.40;100325.16;4903299;28;97861;-73
2023/07/27 03:43:42;;;;;;;;;;;;;;;14.35;38.48;100324.16;4915350;28;97956;-74
2023/07/27 03:46:09;;;;;;;;;;;;;;;14.32;38.36;100313.88;4887113;28;98023;-74
2023/07/27 03:48:37;;;;;;;;;;;;;;;14.29;38.31;100322.59;4909813;28;97938;-74
2023/07/27 03:51:04;;;;;;;;;;;;;;;14.27;38.57;100319.41;4908189;28;98617;-74
2023/07/27 03:53:33;;;;;;;;;;;;;;;14.27;38.32;100324.81;4924470;28;99419;-74
2023/07/27 03:56:01;;;;;;;;;;;;;;;14.27;38.50;100319.41;4908669;28;98332;-74
2023/07/27 03:58:29;;;;;;;;;;;;;;;14.28;38.61;100321.81;4923990;28;98084;-74
2023/07/27 04:00:56;;;;;;;;;;;;;;;14.29;38.59;100317.19;4922867;28;98655;-74
2023/07/27 04:03:23;;;;;;;;;;;;;;;14.28;38.20;100319.09;4909279;28;99359;-74
2023/07/27 04:05:51;;;;;;;;;;;;;;;14.28;38.19;100321.81;4907063;28;98319;-73
2023/07/27 04:08:18;;;;;;;;;;;;;;;14.29;38.31;100317.19;4891945;28;98328;-75
2023/07/27 04:10:44;;;;;;;;;;;;;;;14.30;38.43;100318.78;4916142;28;98434;-74
2023/07/27 04:13:11;;;;;;;;;;;;;;;14.30;38.20;100314.16;4907580;28;98646;-73
2023/07/27 04:15:42;;;;;;;;;;;;;;;14.32;38.61;100319.31;4908242;28;98136;-72
2023/07/27 04:18:09;;;;;;;;;;;;;;;14.35;38.15;100310.59;4896482;28;98160;-73
2023/07/27 04:20:35;;;;;;;;;;;;;;;14.36;38.50;100314.91;4903214;28;98899;-73
2023/07/27 04:23:03;;;;;;;;;;;;;;;14.39;38.08;100325.16;4892356;28;98066;-75
2023/07/27 04:25:30;;;;;;;;;;;;;;;14.40;38.41;100316.72;4887650;28;98324;-73
2023/07/27 04:27:57;;;;;;;;;;;;;;;14.44;38.30;100316.94;4907075;28;99843;-73
2023/07/27 04:30:23;;;;;;;;;;;;;;;14.47;38.47;100317.16;4908154;28;98333;-74
2023/07/27 04:32:50;;;;;;;;;;;;;;;14.51;38.33;100317.41;4906652;28;98700;-74
2023/07/27 04:35:17;;;;;;;;;;;;;;;14.56;38.40;100325.44;4920351;28;98587;-73
2023/07/27 04:37:43;;;;;;;;;;;;;;;14.59;38.11;100308.56;4884997;28;97949;-75
2023/07/27 04:40:11;;;;;;;;;;;;;;;14.64;38.18;100313.09;4911564;28;101430;-74
2023/07/27 04:42:37;;;;;;;;;;;;;;;14.71;38.11;100318.97;4918760;28;98269;-74
2023/07/27 04:45:04;;;;;;;;;;;;;;;14.80;38.32;100316.34;4880148;28;98141;-73
2023/07/27 04:47:31;;;;;;;;;;;;;;;14.86;38.25;100312.47;4919195;28;98183;-74
2023/07/27 04:49:58;;;;;;;;;;;;;;;14.90;38.13;100311.56;4896932;28;98337;-73
2023/07/27 04:52:25;;;;;;;;;;;;;;;14.98;37.90;100316.28;4903039;28;98240;-74
2023/07/27 04:54:51;;;;;;;;;;;;;;;15.04;38.02;100316.97;4918424;28;99712;-73
2023/07/27 04:57:17;;;;;;;;;;;;;;;15.11;38.12;100305.72;4918320;28;98107;-73
2023/07/27 04:59:47;;;;;;;;;;;;;;;15.17;38.19;100307.25;4881540;28;98481;-74
2023/07/27 05:02:14;;;;;;;;;;;;;;;15.25;38.13;100306.56;4893561;28;98860;-75
2023/07/27 05:04:41;;;;;;;;;;;;;;;15.36;37.79;100309.84;4906922;28;100320;-73
2023/07/27 05:07:09;;;;;;;;;;;;;;;15.45;38.07;100300.69;4877057;28;98288;-73
2023/07/27 05:09:36;;;;;;;;;;;;;;;15.55;38.04;100307.00;4918944;28;98214;-74
2023/07/27 05:12:07;;;;;;;;;;;;;;;15.63;37.93;100304.38;4908378;28;98223;-73
2023/07/27 05:14:34;;;;;;;;;;;;;;;15.73;38.06;100297.97;4906259;28;98276;-73
2023/07/27 05:17:01;;;;;;;;;;;;;;;15.85;37.88;100297.44;4923012;28;99506;-74
2023/07/27 05:19:28;;;;;;;;;;;;;;;15.88;37.78;100294.09;4908393;28;98573;-74
2023/07/27 05:21:55;;;;;;;;;;;;;;;16.03;37.96;100288.28;4920828;28;98434;-74
2023/07/27 05:24:21;;;;;;;;;;;;;;;16.22;37.60;100287.31;4890459;28;98770;-75
2023/07/27 05:26:48;;;;;;;;;;;;;;;16.36;37.63;100288.88;4889500;28;98312;-73
2023/07/27 05:29:14;;;;;;;;;;;;;;;16.56;37.54;100284.81;4882359;28;98557;-74
2023/07/27 05:31:41;;;;;;;;;;;;;;;16.85;37.26;100292.53;4880320;28;102841;-74
2023/07/27 05:34:08;;;;;;;;;;;;;;;17.11;37.15;100283.66;4902569;28;100140;-72
2023/07/27 05:36:36;;;;;;;;;;;;;;;17.33;37.11;100280.03;4901823;28;98025;-74
2023/07/27 05:39:03;;;;;;;;;;;;;;;17.56;37.06;100278.81;4921853;28;98898;-73
2023/07/27 05:41:29;;;;;;;;;;;;;;;17.79;36.85;100278.69;4904137;28;98105;-74
2023/07/27 05:43:56;;;;;;;;;;;;;;;17.99;37.11;100280.00;4923023;28;98085;-74
2023/07/27 05:46:22;;;;;;;;;;;;;;;18.13;36.98;100278.69;4901395;28;100356;-73
2023/07/27 05:48:49;;;;;;;;;;;;;;;18.39;36.88;100280.59;4901658;28;100226;-72
2023/07/27 05:51:15;;;;;;;;;;;;;;;18.55;36.92;100275.41;4907291;28;98221;-74
2023/07/27 05:53:48;;;;;;;;;;;;;;;18.81;36.77;100276.16;4887920;28;98134;-73
2023/07/27 05:56:15;;;;;;;;;;;;;;;18.92;36.59;100267.63;4902973;28;98453;-74
2023/07/27 05:58:41;;;;;;;;;;;;;;;19.04;36.78;100265.78;4891154;28;99164;-74
2023/07/27 06:01:07;;;;;;;;;;;;;;;19.22;36.58;100276.66;4918681;28;98000;-73
2023/07/27 06:03:35;;;;;;;;;;;;;;;19.40;36.88;100269.94;4889587;28;98246;-75
2023/07/27 06:06:01;;;;;;;;;;;;;;;19.53;36.79;100270.81;4893342;28;98264;-74
2023/07/27 06:08:30;;;;;;;;;;;;;;;19.88;36.65;100270.59;4939757;28;97960;-74
2023/07/27 06:11:06;;;;;;;;;;;;;;;20.10;36.46;100267.50;4911219;28;97925;-74
2023/07/27 06:13:33;;;;;;;;;;;;;;;20.58;36.15;100266.88;4914751;28;98147;-74
2023/07/27 06:16:00;;;;;;;;;;;;;;;21.03;36.00;100268.78;4908784;28;98502;-74
2023/07/27 06:18:28;;;;;;;;;;;;;;;21.36;36.07;100261.59;4906110;28;98177;-74
2023/07/27 06:20:55;;;;;;;;;;;;;;;22.00;35.64;100263.47;4907177;28;97998;-74
2023/07/27 06:23:23;;;;;;;;;;;;;;;22.38;35.50;100260.25;4903965;28;99085;-74
2023/07/27 06:25:49;;;;;;;;;;;;;;;22.92;35.16;100262.44;4878174;28;100442;-74
2023/07/27 06:28:16;;;;;;;;;;;;;;;23.23;35.38;100256.13;4923061;28;98274;-74
2023/07/27 06:30:45;;;;;;;;;;;;;;;23.53;35.21;100250.88;4925684;28;98027;-74
2023/07/27 06:33:14;;;;;;;;;;;;;;;24.15;34.91;100248.25;4910732;28;98485;-74
2023/07/27 06:35:41;;;;;;;;;;;;;;;24.62;34.50;100252.66;4916591;28;98193;-74
2023/07/27 06:38:10;;;;;;;;;;;;;;;24.83;34.62;100248.69;4904911;28;98055;-74
2023/07/27 06:40:36;;;;;;;;;;;;;;;25.17;35.02;100249.66;4882481;28;98315;-75
2023/07/27 06:43:04;;;;;;;;;;;;;;;25.14;34.94;100250.38;4900788;28;99278;-75
2023/07/27 06:45:33;;;;;;;;;;;;;;;24.96;35.51;100255.59;4886642;28;97990;-76
2023/07/27 06:48:02;;;;;;;;;;;;;;;25.23;34.87;100245.41;4907620;28;98267;-75
2023/07/27 06:50:30;;;;;;;;;;;;;;;25.34;35.04;100248.31;4923736;28;98199;-77
2023/07/27 06:52:57;;;;;;;;;;;;;;;25.59;34.75;100245.91;4890675;28;100331;-75
2023/07/27 06:55:24;;;;;;;;;;;;;;;25.74;34.85;100233.84;4922235;28;97949;-75
2023/07/27 06:57:50;;;;;;;;;;;;;;;25.83;34.99;100244.66;4915582;28;98223;-76
2023/07/27 07:00:18;;;;;;;;;;;;;;;25.92;34.77;100237.66;4890102;28;98028;-76
2023/07/27 07:02:48;;;;;;;;;;;;;;;26.27;34.70;100236.47;4888728;28;98142;-77
2023/07/27 07:05:15;;;;;;;;;;;;;;;26.60;34.60;100243.13;4924031;28;98254;-76
2023/07/27 07:07:43;;;;;;;;;;;;;;;27.02;34.48;100241.88;4924062;28;98201;-74
2023/07/27 07:10:09;;;;;;;;;;;;;;;27.10;34.45;100240.75;4926537;28;98286;-73
2023/07/27 07:12:36;;;;;;;;;;;;;;;27.05;34.94;100225.31;4891958;28;99588;-74
2023/07/27 07:15:03;;;;;;;;;;;;;;;26.85;34.83;100230.31;4916245;28;98231;-73
2023/07/27 07:17:29;;;;;;;;;;;;;;;26.79;34.68;100226.31;4922159;28;98522;-77
2023/07/27 07:19:56;;;;;;;;;;;;;;;27.03;34.63;100226.88;4886938;28;98474;-77
2023/07/27 07:22:22;;;;;;;;;;;;;;;27.10;34.43;100226.94;4921634;28;99343;-76
2023/07/27 07:24:50;;;;;;;;;;;;;;;27.17;34.66;100219.50;4900237;28;98358;-77
2023/07/27 07:27:18;;;;;;;;;;;;;;;27.13;34.60;100218.69;4905536;28;98232;-74
2023/07/27 07:29:45;;;;;;;;;;;;;;;27.12;34.74;100219.09;4906809;28;98040;-76
2023/07/27 07:32:12;;;;;;;;;;;;;;;27.40;34.61;100213.72;4893262;28;98126;-76
2023/07/27 07:34:39;;;;;;;;;;;;;;;27.93;34.08;100212.38;4914253;28;98049;-73
2023/07/27 07:37:10;;;;;;;;;;;;;;;28.06;34.05;100221.09;4904857;28;99619;-73
2023/07/27 07:39:37;;;;;;;;;;;;;;;27.77;34.41;100215.47;4909282;28;99640;-73
2023/07/27 07:42:03;;;;;;;;;;;;;;;27.82;34.71;100215.09;4896274;28;99876;-78
2023/07/27 07:44:30;;;;;;;;;;;;;;;28.12;34.46;100208.47;4911512;28;98084;-73
2023/07/27 07:46:56;;;;;;;;;;;;;;;28.02;34.40;100207.25;4927087;28;98213;-74
2023/07/27 07:49:26;;;;;;;;;;;;;;;28.19;34.56;100205.72;4923668;28;99864;-73
2023/07/27 07:51:53;;;;;;;;;;;;;;;28.27;34.10;100204.53;4910226;28;101515;-74
2023/07/27 07:54:20;;;;;;;;;;;;;;;28.25;34.28;100203.34;4910394;28;99160;-73
2023/07/27 07:56:48;;;;;;;;;;;;;;;28.09;34.30;100198.16;4925929;28;98166;-76
2023/07/27 07:59:16;;;;;;;;;;;;;;;28.11;34.23;100195.81;4909007;28;98435;-73
2023/07/27 08:01:43;;;;;;;;;;;;;;;28.07;34.56;100197.78;4902301;28;98142;-76
2023/07/27 08:04:10;;;;;;;;;;;;;;;28.16;34.54;100186.31;4909368;28;98045;-77
2023/07/27 08:06:40;;;;;;;;;;;;;;;28.58;33.93;100182.81;4885162;28;99623;-78
2023/07/27 08:09:06;;;;;;;;;;;;;;;28.75;34.09;100190.31;4925690;28;97890;-76
2023/07/27 08:11:33;;;;;;;;;;;;;;;28.97;33.70;100177.25;4912258;28;97944;-73
2023/07/27 08:14:02;;;;;;;;;;;;;;;29.32;33.51;100175.59;4892362;28;97825;-76
2023/07/27 08:16:29;;;;;;;;;;;;;;;29.49;33.90;100171.16;4914500;28;97832;-76
2023/07/27 08:18:56;;;;;;;;;;;;;;;29.66;33.64;100169.50;4911529;28;98075;-73
2023/07/27 08:21:24;;;;;;;;;;;;;;;29.99;33.44;100170.94;4922563;28;98024;-73
2023/07/27 08:23:53;;;;;;;;;;;;;;;30.44;32.82;100165.44;4923643;28;98049;-73
2023/07/27 08:26:20;;;;;;;;;;;;;;;31.15;32.69;100161.22;4916224;28;98219;-76
2023/07/27 08:28:47;;;;;;;;;;;;;;;31.68;32.50;100157.03;4901446;28;98020;-73
2023/07/27 08:31:14;;;;;;;;;;;;;;;32.16;32.32;100158.72;4911137;28;98383;-73
2023/07/27 08:33:41;;;;;;;;;;;;;;;32.52;32.14;100155.38;4893205;28;99095;-79
2023/07/27 08:36:10;;;;;;;;;;;;;;;32.95;31.61;100144.28;4906104;28;97882;-78
2023/07/27 08:38:36;;;;;;;;;;;;;;;33.64;31.08;100142.47;4905200;28;99472;-70
2023/07/27 08:41:05;;;;;;;;;;;;;;;34.18;31.01;100139.22;4895500;28;99136;-71
2023/07/27 08:43:32;;;;;;;;;;;;;;;34.58;30.68;100143.88;4889560;28;98106;-70
2023/07/27 08:46:00;;;;;;;;;;;;;;;34.60;30.80;100141.44;4925705;28;97827;-71
2023/07/27 08:48:28;;;;;;;;;;;;;;;34.44;31.25;100139.41;4920811;28;97915;-71
2023/07/27 08:50:57;;;;;;;;;;;;;;;34.58;31.62;100130.66;4918414;28;98345;-71
2023/07/27 08:53:25;;;;;;;;;;;;;;;35.28;31.07;100128.38;4929246;28;98311;-70
2023/07/27 08:55:52;;;;;;;;;;;;;;;35.77;30.77;100128.13;4907176;28;99906;-77
2023/07/27 08:58:18;;;;;;;;;;;;;;;36.45;30.45;100128.75;4925361;28;98256;-75
2023/07/27 09:00:49;;;;;;;;;;;;;;;37.31;30.13;100120.88;4895085;28;98025;-71
2023/07/27 09:03:15;;;;;;;;;;;;;;;38.25;29.26;100122.38;4908705;28;98699;-71
2023/07/27 09:05:47;;;;;;;;;;;;;;;38.68;29.42;100114.94;4904753;28;97918;-71
2023/07/27 09:08:14;;;;;;;;;;;;;;;39.59;29.19;100115.28;4921015;28;98057;-72
2023/07/27 09:10:43;;;;;;;;;;;;;;;40.49;28.56;100107.56;4894139;28;99416;-74
2023/07/27 09:13:10;;;;;;;;;;;;;;;41.36;28.10;100115.09;4905518;28;98705;-78
2023/07/27 09:15:41;;;;;;;;;;;;;;;42.03;27.68;100104.09;4897235;28;97951;-73
2023/07/27 09:18:16;;;;;;;;;;;;;;;41.42;28.65;100096.22;4905623;28;97963;-74
2023/07/27 09:20:45;;;;;;;;;;;;;;;40.09;29.79;100090.25;4917228;28;98121;-77
2023/07/27 09:23:24;;;;;;;;;;;;;;;39.38;30.67;100089.69;4901064;28;97973;-73
2023/07/27 09:25:57;;;;;;;;;;;;;;;38.68;30.93;100088.81;4899830;28;99259;-74
2023/07/27 09:28:27;;;;;;;;;;;;;;;37.72;31.64;100071.13;4908847;28;97787;-73
2023/07/27 09:30:59;;;;;;;;;;;;;;;37.66;31.16;100067.38;4920499;28;98213;-79
2023/07/27 09:33:25;;;;;;;;;;;;;;;37.03;31.54;100066.56;4922452;28;97958;-78
2023/07/27 09:35:54;;;;;;;;;;;;;;;36.62;31.79;100060.00;4918798;28;98040;-78
2023/07/27 09:38:25;;;;;;;;;;;;;;;36.79;31.93;100052.97;4917996;28;98139;-72
2023/07/27 09:40:52;;;;;;;;;;;;;;;36.78;31.46;100042.97;4924590;28;97857;-79
2023/07/27 09:43:26;;;;;;;;;;;;;;;37.60;30.76;100047.50;4911302;28;99138;-78
2023/07/27 09:45:58;;;;;;;;;;;;;;;38.24;29.97;100047.69;4910116;28;100567;-72
2023/07/27 09:48:25;;;;;;;;;;;;;;;38.72;29.87;100041.59;4921706;28;98133;-72
2023/07/27 09:50:54;;;;;;;;;;;;;;;38.57;30.25;100046.28;4924373;28;98204;-79
2023/07/27 09:53:24;;;;;;;;;;;;;;;38.52;30.46;100042.09;4908879;28;98468;-78
2023/07/27 09:55:56;;;;;;;;;;;;;;;36.92;31.26;100040.88;4910673;28;97982;-74
2023/07/27 09:58:24;;;;;;;;;;;;;;;39.45;29.56;100035.00;4911442;28;98245;-73
2023/07/27 10:00:51;;;;;;;;;;;;;;;39.23;29.79;100032.44;4920862;28;99137;-78
2023/07/27 10:03:19;;;;;;;;;;;;;;;38.07;30.37;100030.31;4905564;28;97839;-74
2023/07/27 10:05:48;;;;;;;;;;;;;;;36.24;32.02;100030.06;4903954;28;97853;-76
2023/07/27 10:08:17;;;;;;;;;;;;;;;35.29;32.44;100021.53;4906703;28;98005;-77
2023/07/27 10:10:46;;;;;;;;;;;;;;;34.27;33.28;100003.63;4926598;28;98270;-78
2023/07/27 10:13:40;;;;;;;;;;;;;;;33.45;33.91;100009.22;4924597;28;99484;-77
2023/07/27 10:16:10;;;;;;;;;;;;;;;32.75;34.11;100007.53;4914184;28;98580;-77
2023/07/27 10:18:48;;;;;;;;;;;;;;;32.15;34.25;99996.31;4933830;28;98057;-79
2023/07/27 10:21:21;;;;;;;;;;;;;;;31.51;34.61;99989.75;4897016;28;98142;-77
2023/07/27 10:23:57;;;;;;;;;;;;;;;30.87;34.72;99999.00;4939844;28;97937;-77
2023/07/27 10:26:42;;;;;;;;;;;;;;;30.12;35.22;100001.75;4925021;28;97967;-72
2023/07/27 10:29:15;;;;;;;;;;;;;;;29.31;35.72;99991.63;4932893;28;98049;-78
2023/07/27 10:31:43;;;;;;;;;;;;;;;28.68;35.73;100001.00;4927787;28;98009;-76
2023/07/27 10:34:20;;;;;;;;;;;;;;;28.18;35.92;100004.69;4906644;28;98515;-71
2023/07/27 10:36:57;;;;;;;;;;;;;;;27.68;36.06;99996.34;4918988;28;98089;-80
2023/07/27 10:39:34;;;;;;;;;;;;;;;27.26;36.10;100017.22;4914654;28;97945;-78
2023/07/27 10:42:03;;;;;;;;;;;;;;;27.09;35.97;100018.72;4902121;28;98478;-77
2023/07/27 10:44:42;;;;;;;;;;;;;;;27.06;35.72;100021.47;4907089;28;98453;-80
2023/07/27 10:47:23;;;;;;;;;;;;;;;27.05;35.64;100019.91;4922518;28;97916;-78
2023/07/27 10:49:55;;;;;;;;;;;;;;;27.01;35.52;100027.41;4916818;28;97844;-78
2023/07/27 10:52:23;;;;;;;;;;;;;;;26.82;35.72;100028.50;4908526;28;98221;-79
2023/07/27 10:54:50;;;;;;;;;;;;;;;26.65;35.57;100022.50;4906571;28;97957;-71
2023/07/27 10:57:19;;;;;;;;;;;;;;;26.50;35.62;100037.41;4875532;28;100295;-79
2023/07/27 10:59:50;;;;;;;;;;;;;;;26.33;35.67;100038.84;4939134;28;98798;-71
2023/07/27 11:02:26;;;;;;;;;;;;;;;26.16;35.86;100032.00;4907171;28;98336;-78
2023/07/27 11:04:57;;;;;;;;;;;;;;;26.00;35.72;100033.47;4927079;28;98448;-71
2023/07/27 11:07:40;;;;;;;;;;;;;;;25.85;35.91;100027.81;4884666;28;98170;-79
2023/07/27 11:10:13;;;;;;;;;;;;;;;25.77;35.75;100009.56;4939926;28;98113;-71
2023/07/27 11:12:52;;;;;;;;;;;;;;;25.99;35.66;99996.78;4888782;28;98364;-71
2023/07/27 11:15:26;;;;;;;;;;;;;;;26.25;35.23;99997.72;4909596;28;100590;-79
2023/07/27 11:17:53;;;;;;;;;;;;;;;26.55;34.72;100003.09;4908280;28;98504;-75
2023/07/27 11:20:22;;;;;;;;;;;;;;;26.77;34.88;99996.50;4924553;28;99279;-79
2023/07/27 11:22:48;;;;;;;;;;;;;;;26.97;34.55;99985.13;4910658;28;100073;-79
2023/07/27 11:25:15;;;;;;;;;;;;;;;27.21;34.32;99987.19;4912886;28;98388;-79
2023/07/27 11:27:41;;;;;;;;;;;;;;;27.27;34.38;99971.78;4892849;28;99173;-79
2023/07/27 11:30:12;;;;;;;;;;;;;;;27.14;34.50;99974.13;4910652;28;98100;-79
2023/07/27 11:32:38;;;;;;;;;;;;;;;26.86;34.88;99968.47;4923939;28;98681;-79
2023/07/27 11:35:05;;;;;;;;;;;;;;;26.58;34.90;99974.69;4909443;28;98046;-79
2023/07/27 11:37:33;;;;;;;;;;;;;;;26.48;35.19;99969.88;4906033;28;99795;-79
2023/07/27 11:39:59;;;;;;;;;;;;;;;26.36;35.34;99965.44;4893201;28;98200;-71
2023/07/27 11:42:26;;;;;;;;;;;;;;;26.21;35.30;99964.56;4906354;28;100273;-79
2023/07/27 11:44:53;;;;;;;;;;;;;;;26.22;35.12;99957.09;4927704;28;99086;-71
2023/07/27 11:47:22;;;;;;;;;;;;;;;26.23;35.18;99959.47;4892764;28;99111;-79
2023/07/27 11:49:53;;;;;;;;;;;;;;;26.21;35.31;99959.03;4904413;28;98137;-71
2023/07/27 11:52:25;;;;;;;;;;;;;;;26.19;35.00;99950.38;4907177;28;98400;-71
2023/07/27 11:54:55;;;;;;;;;;;;;;;26.19;35.11;99948.41;4911784;28;98357;-78
2023/07/27 11:57:27;;;;;;;;;;;;;;;26.28;34.85;99950.03;4906920;28;97990;-79
2023/07/27 12:00:14;;;;;;;;;;;;;;;26.33;34.83;99958.75;4921445;28;98148;-71
2023/07/27 12:02:48;;;;;;;;;;;;;;;26.40;34.86;99939.44;4904986;28;98424;-79
2023/07/27 12:05:16;;;;;;;;;;;;;;;26.46;34.69;99942.66;4908307;28;97907;-71
2023/07/27 12:07:44;;;;;;;;;;;;;;;26.52;34.56;99940.31;4888479;28;98021;-79
2023/07/27 12:10:11;;;;;;;;;;;;;;;26.55;34.54;99932.03;4896655;28;98144;-79
2023/07/27 12:12:51;;;;;;;;;;;;;;;26.57;34.59;99926.13;4910677;28;98242;-72
2023/07/27 12:15:31;;;;;;;;;;;;;;;26.51;34.57;99925.69;4925950;28;98342;-79
2023/07/27 12:17:59;;;;;;;;;;;;;;;26.12;35.16;99929.00;4922399;28;98169;-79
2023/07/27 12:20:26;;;;;;;;;;;;;;;25.77;35.37;99946.09;4921575;28;98394;-78
2023/07/27 12:22:52;;;;;;;;;;;;;;;25.46;35.38;99956.47;4885668;28;98266;-71
2023/07/27 12:25:19;;;;;;;;;;;;;;;25.17;35.56;99969.19;4890922;28;98362;-77
2023/07/27 12:27:45;;;;;;;;;;;;;;;24.93;35.87;99967.72;4891701;28;98250;-77
2023/07/27 12:30:12;;;;;;;;;;;;;;;24.70;36.08;99962.31;4920359;28;98013;-70
2023/07/27 12:32:41;;;;;;;;;;;;;;;24.48;35.92;99957.69;4907328;28;98061;-71
2023/07/27 12:35:10;;;;;;;;;;;;;;;24.27;36.03;99955.41;4924179;28;98889;-77
2023/07/27 12:37:38;;;;;;;;;;;;;;;23.98;36.07;99951.47;4904531;28;97908;-76
2023/07/27 12:40:06;;;;;;;;;;;;;;;23.73;36.17;99951.06;4923463;28;98342;-77
2023/07/27 12:42:33;;;;;;;;;;;;;;;23.62;36.27;99950.06;4911201;28;97842;-78
2023/07/27 12:44:59;;;;;;;;;;;;;;;23.49;36.33;99950.25;4908899;28;98334;-71
2023/07/27 12:47:26;;;;;;;;;;;;;;;23.33;36.22;99943.28;4924338;28;99103;-78